Uni-arise — 3FSV7 — position and weather

sailwx.info

Track history (hours):
 
Tides and Currents Weather Stations Pressure Air Temp Water Temp Dewpoint Dewpoint Depression Visibility Wind Speed Wind Dir Waves Ship Positions

Uni-arise

Last reported at 2017-Mar-22 21:33 UTC. Time now 2017-Mar-22 22:08 UTC.
Position N 34°33' E 135°16'.

Length 165 m; draft 9 m.

Type: Ship (hazmat cat D). MMSI: 351608000.

Date/timePositionNaut miles runAvg speedWind from/ knotsBaromVisibWave heightAir tempDewpointWater temp
2017-Mar-22 21:33N 34°33' E 135°16'1413.9
2017-Mar-22 20:32N 34°23' E 135°04'1414.3
2017-Mar-22 19:33N 34°10' E 134°59'1313.0
2017-Mar-22 18:31N 33°57' E 134°60'  
2017-Mar-18 19:33N 22°52' E 119°58'1514.6
2017-Mar-18 18:33N 22°39' E 120°05'1312.8
2017-Mar-18 17:33N 22°33' E 120°17'3 0.2
2017-Mar-18 03:14N 22°33' E 120°20'4 6.5
2017-Mar-18 02:33N 22°32' E 120°15'9 9.0
2017-Mar-18 01:33N 22°27' E 120°07'1 1.3
2017-Mar-18 00:33N 22°26' E 120°06'1 0.7
2017-Mar-17 23:33N 22°27' E 120°06'1 0.8
2017-Mar-17 22:33N 22°28' E 120°05'1 0.9
2017-Mar-17 21:33N 22°28' E 120°05'1 0.8
2017-Mar-17 20:33N 22°29' E 120°05'1 0.7
2017-Mar-17 19:33N 22°30' E 120°04'1 0.5
2017-Mar-17 18:33N 22°30' E 120°04'0 0.3
2017-Mar-17 17:33N 22°31' E 120°04'0 0.5
2017-Mar-17 16:33N 22°31' E 120°05'6 5.5
2017-Mar-17 15:25N 22°30' E 119°58'  
Track history (hours):
 
Tides and Currents Weather Stations Pressure Air Temp Water Temp Dewpoint Dewpoint Depression Visibility Wind Speed Wind Dir Waves Ship Positions

Uni-arise

Last reported at 2017-Mar-22 21:33 UTC. Time now 2017-Mar-22 22:08 UTC.
Position N 34°33' E 135°16'.

Length 165 m; draft 9 m.

Type: Ship (hazmat cat D). MMSI: 351608000.

Date/timePositionNaut miles runAvg speedWind from/ knotsBaromVisibWave heightAir tempDewpointWater temp
2017-Mar-22 21:33N 34°33' E 135°16'1413.9
2017-Mar-22 20:32N 34°23' E 135°04'1414.3
2017-Mar-22 19:33N 34°10' E 134°59'1313.0
2017-Mar-22 18:31N 33°57' E 134°60'  
2017-Mar-18 19:33N 22°52' E 119°58'1514.6
2017-Mar-18 18:33N 22°39' E 120°05'1312.8
2017-Mar-18 17:33N 22°33' E 120°17'3 0.2
2017-Mar-18 03:14N 22°33' E 120°20'4 6.5
2017-Mar-18 02:33N 22°32' E 120°15'9 9.0
2017-Mar-18 01:33N 22°27' E 120°07'1 1.3
2017-Mar-18 00:33N 22°26' E 120°06'1 0.7
2017-Mar-17 23:33N 22°27' E 120°06'1 0.8
2017-Mar-17 22:33N 22°28' E 120°05'1 0.9
2017-Mar-17 21:33N 22°28' E 120°05'1 0.8
2017-Mar-17 20:33N 22°29' E 120°05'1 0.7
2017-Mar-17 19:33N 22°30' E 120°04'1 0.5
2017-Mar-17 18:33N 22°30' E 120°04'0 0.3
2017-Mar-17 17:33N 22°31' E 120°04'0 0.5
2017-Mar-17 16:33N 22°31' E 120°05'6 5.5
2017-Mar-17 15:25N 22°30' E 119°58'  

Dump ship's entire track history